createdAt,value
2023-01-04T00:01:00.157Z,99764.06
2023-01-04T00:02:03.113Z,99758.94
2023-01-04T00:03:06.588Z,99760.66
2023-01-04T00:04:10.480Z,99762.34
2023-01-04T00:05:13.279Z,99765.78
2023-01-04T00:06:16.229Z,99770.91
2023-01-04T00:07:18.995Z,99764.09
2023-01-04T00:08:20.950Z,99768.38
2023-01-04T00:09:23.861Z,99758.13
2023-01-04T00:10:25.763Z,99766.69
2023-01-04T00:11:28.846Z,99755.66
2023-01-04T00:12:30.673Z,99765.84
2023-01-04T00:13:33.985Z,99759.91
2023-01-04T00:14:36.753Z,99765.09
2023-01-04T00:15:38.654Z,99760.88
2023-01-04T00:16:41.563Z,99762.59
2023-01-04T00:17:44.046Z,99757.47
2023-01-04T00:18:48.836Z,99761.72
2023-01-04T00:20:11.438Z,99758.34
2023-01-04T00:21:14.794Z,99760.94
2023-01-04T00:22:17.633Z,99759.25
2023-01-04T00:23:19.630Z,99760.13
2023-01-04T00:24:22.797Z,99759.28
2023-01-04T00:25:24.585Z,99762.69
2023-01-04T00:26:29.330Z,99757.53
2023-01-04T00:27:31.968Z,99753.31
2023-01-04T00:28:34.707Z,99763.56
2023-01-04T00:29:37.783Z,99752.53
2023-01-04T00:30:39.589Z,99752.56
2023-01-04T00:31:44.533Z,99752.53
2023-01-04T00:32:46.512Z,99755.13
2023-01-04T00:33:50.838Z,99756.00
2023-01-04T00:34:52.619Z,99756.88
2023-01-04T00:35:55.436Z,99758.53
2023-01-04T00:36:57.206Z,99756.00
2023-01-04T00:37:59.967Z,99756.91
2023-01-04T00:39:09.741Z,99754.34
2023-01-04T00:40:13.442Z,99751.78
2023-01-04T00:41:34.801Z,99750.94
2023-01-04T00:42:38.160Z,99754.34
2023-01-04T00:43:40.031Z,99748.41
2023-01-04T00:44:42.843Z,99749.25
2023-01-04T00:45:45.354Z,99744.97
2023-01-04T00:46:48.422Z,99755.22
2023-01-04T00:47:50.180Z,99762.88
2023-01-04T00:49:00.185Z,99750.13
2023-01-04T00:50:03.818Z,99751.03
2023-01-04T00:51:05.967Z,99751.06
2023-01-04T00:52:08.813Z,99751.06
2023-01-04T00:53:11.096Z,99757.03
2023-01-04T00:54:16.069Z,99751.91
2023-01-04T00:55:18.348Z,99751.03
2023-01-04T00:56:21.340Z,99745.00
2023-01-04T00:57:23.091Z,99744.09
2023-01-04T00:58:26.223Z,99742.31
2023-01-04T00:59:28.520Z,99754.16
2023-01-04T01:00:31.275Z,99742.16
2023-01-04T01:01:35.358Z,99748.06
2023-01-04T01:02:38.533Z,99748.00
2023-01-04T01:03:40.731Z,99753.00
2023-01-04T01:04:45.082Z,99746.97
2023-01-04T01:05:46.825Z,99750.38
2023-01-04T01:06:50.353Z,99754.59
2023-01-04T01:07:52.448Z,99743.47
2023-01-04T01:08:55.340Z,99747.72
2023-01-04T01:09:58.310Z,99752.78
2023-01-04T01:11:03.691Z,99754.47
2023-01-04T01:12:06.587Z,99748.44
2023-01-04T01:13:08.403Z,99750.97
2023-01-04T01:14:22.885Z,99750.97
2023-01-04T01:15:24.649Z,99743.34
2023-01-04T01:16:53.047Z,99742.53
2023-01-04T01:17:49.868Z,99739.16
2023-01-04T01:18:52.615Z,99737.47
2023-01-04T01:19:55.700Z,99742.59
2023-01-04T01:20:58.529Z,99742.59
2023-01-04T01:22:01.288Z,99746.03
2023-01-04T01:23:03.363Z,99752.00
2023-01-04T01:24:07.378Z,99750.31
2023-01-04T01:25:09.399Z,99749.44
2023-01-04T01:26:13.931Z,99759.66
2023-01-04T01:27:16.705Z,99752.91
2023-01-04T01:28:18.529Z,99755.50
2023-01-04T01:29:21.343Z,99748.69
2023-01-04T01:30:23.241Z,99756.38
2023-01-04T01:31:27.594Z,99752.13
2023-01-04T01:32:29.572Z,99759.81
2023-01-04T01:33:32.616Z,99756.41
2023-01-04T01:34:35.594Z,99759.84
2023-01-04T01:35:38.745Z,99750.44
2023-01-04T01:36:41.958Z,99752.22
2023-01-04T01:37:43.743Z,99746.25
2023-01-04T01:38:47.504Z,99747.97
2023-01-04T01:39:49.659Z,99750.53
2023-01-04T01:40:52.427Z,99752.25
2023-01-04T01:41:54.203Z,99749.75
2023-01-04T01:42:56.987Z,99748.91
2023-01-04T01:44:00.690Z,99742.94
2023-01-04T01:45:10.937Z,99753.19
2023-01-04T01:46:13.228Z,99743.84
2023-01-04T01:47:18.326Z,99748.09
2023-01-04T01:48:24.793Z,99743.91
2023-01-04T01:49:45.939Z,99747.38
2023-01-04T01:50:51.717Z,99747.38
2023-01-04T01:51:56.692Z,99754.19
2023-01-04T01:53:01.178Z,99752.53
2023-01-04T01:54:07.151Z,99746.53
2023-01-04T01:55:10.880Z,99750.78
2023-01-04T01:56:13.905Z,99751.66
2023-01-04T01:57:18.126Z,99752.50
2023-01-04T01:58:24.603Z,99744.88
2023-01-04T01:59:27.890Z,99744.97
2023-01-04T02:00:30.802Z,99745.00
2023-01-04T02:01:33.398Z,99744.16
2023-01-04T02:02:37.173Z,99744.97
2023-01-04T02:03:41.191Z,99748.41
2023-01-04T02:04:49.419Z,99753.47
2023-01-04T02:05:54.706Z,99747.47
2023-01-04T02:06:58.019Z,99750.91
2023-01-04T02:08:00.491Z,99741.59
2023-01-04T02:09:03.905Z,99745.00
2023-01-04T02:10:07.141Z,99740.81
2023-01-04T02:11:10.219Z,99734.03
2023-01-04T02:12:12.244Z,99739.25
2023-01-04T02:13:17.002Z,99733.41
2023-01-04T02:14:29.792Z,99740.25
2023-01-04T02:15:38.049Z,99744.47
2023-01-04T02:16:46.550Z,99735.91
2023-01-04T02:17:53.719Z,99739.25
2023-01-04T02:18:59.613Z,99740.13
2023-01-04T02:20:17.571Z,99735.03
2023-01-04T02:21:24.197Z,99731.66
2023-01-04T02:22:59.633Z,99733.38
2023-01-04T02:24:23.701Z,99733.34
2023-01-04T02:25:49.824Z,99728.25
2023-01-04T02:27:15.077Z,99734.22
2023-01-04T02:28:23.044Z,99727.47
2023-01-04T02:29:51.187Z,99736.00
2023-01-04T02:31:16.729Z,99735.16
2023-01-04T02:32:25.657Z,99735.22
2023-01-04T02:33:34.832Z,99733.56
2023-01-04T02:34:42.854Z,99736.13
2023-01-04T02:36:06.733Z,99733.69
2023-01-04T02:37:12.138Z,99732.06
2023-01-04T02:38:18.366Z,99731.28
2023-01-04T02:39:25.937Z,99727.09
2023-01-04T02:40:34.043Z,99732.25
2023-01-04T02:41:43.401Z,99724.66
2023-01-04T02:43:13.815Z,99724.69
2023-01-04T02:44:37.612Z,99729.03
2023-01-04T02:45:48.008Z,99724.81
2023-01-04T02:46:55.826Z,99723.13
2023-01-04T02:48:20.531Z,99725.75
2023-01-04T02:49:41.051Z,99724.09
2023-01-04T02:50:51.692Z,99719.03
2023-01-04T02:51:54.529Z,99723.34
2023-01-04T02:52:56.315Z,99719.09
2023-01-04T02:54:01.789Z,99722.47
2023-01-04T02:55:06.654Z,99710.53
2023-01-04T02:56:12.808Z,99716.47
2023-01-04T02:57:26.836Z,99713.94
2023-01-04T02:58:40.781Z,99713.13
2023-01-04T02:59:56.841Z,99718.22
2023-01-04T03:01:22.977Z,99715.69
2023-01-04T03:02:52.774Z,99717.44
2023-01-04T03:04:20.525Z,99712.31
2023-01-04T03:05:59.805Z,99700.44
2023-01-04T03:07:10.862Z,99697.06
2023-01-04T03:08:17.506Z,99701.31
2023-01-04T03:09:22.927Z,99703.84
2023-01-04T03:10:31.092Z,99711.47
2023-01-04T03:11:55.233Z,99697.84
2023-01-04T03:13:03.576Z,99701.22
2023-01-04T03:14:32.622Z,99695.22
2023-01-04T03:15:34.271Z,99705.38
2023-01-04T03:16:38.269Z,99695.94
2023-01-04T03:17:45.880Z,99700.13
2023-01-04T03:18:50.274Z,99686.47
2023-01-04T03:19:55.848Z,99693.19
2023-01-04T03:20:59.648Z,99694.81
2023-01-04T03:22:03.997Z,99692.25
2023-01-04T03:23:26.402Z,99684.50
2023-01-04T03:24:47.021Z,99690.41
2023-01-04T03:26:17.251Z,99685.22
2023-01-04T03:27:38.413Z,99686.00
2023-01-04T03:29:28.708Z,99677.50
2023-01-04T03:30:49.547Z,99676.59
2023-01-04T03:32:27.301Z,99678.25
2023-01-04T03:33:49.338Z,99680.69
2023-01-04T03:35:09.767Z,99682.31
2023-01-04T03:36:20.751Z,99676.25
2023-01-04T03:37:25.610Z,99672.75
2023-01-04T03:38:51.238Z,99674.44
2023-01-04T03:40:26.473Z,99672.69
2023-01-04T03:41:49.345Z,99675.25
2023-01-04T03:43:15.681Z,99665.78
2023-01-04T03:44:40.095Z,99668.34
2023-01-04T03:46:03.820Z,99672.59
2023-01-04T03:47:27.592Z,99660.72
2023-01-04T03:48:35.856Z,99665.03
2023-01-04T03:49:41.139Z,99659.03
2023-01-04T03:50:46.983Z,99662.47
2023-01-04T03:51:49.647Z,99662.44
2023-01-04T03:52:53.230Z,99663.28
2023-01-04T03:53:58.644Z,99657.31
2023-01-04T03:55:01.816Z,99659.91
2023-01-04T03:56:05.027Z,99662.44
2023-01-04T03:57:07.413Z,99659.03
2023-01-04T03:58:10.617Z,99656.47
2023-01-04T03:59:13.034Z,99654.78
2023-01-04T04:00:18.483Z,99654.88
2023-01-04T04:01:21.506Z,99652.41
2023-01-04T04:02:25.412Z,99649.94
2023-01-04T04:03:27.339Z,99654.25
2023-01-04T04:04:48.985Z,99652.59
2023-01-04T04:06:09.152Z,99655.22
2023-01-04T04:07:29.556Z,99653.63
2023-01-04T04:08:32.329Z,99640.09
2023-01-04T04:09:34.092Z,99645.28
2023-01-04T04:10:36.935Z,99641.09
2023-01-04T04:11:39.718Z,99648.84
2023-01-04T04:12:41.472Z,99642.06
2023-01-04T04:13:44.652Z,99642.16
2023-01-04T04:14:46.444Z,99647.34
2023-01-04T04:15:49.352Z,99654.19
2023-01-04T04:16:51.247Z,99646.56
2023-01-04T04:17:54.103Z,99642.38
2023-01-04T04:18:56.015Z,99644.97
2023-01-04T04:20:00.199Z,99647.59
2023-01-04T04:21:01.955Z,99651.91
2023-01-04T04:22:04.725Z,99642.56
2023-01-04T04:23:06.875Z,99657.06
2023-01-04T04:24:11.279Z,99654.56
2023-01-04T04:25:13.083Z,99657.13
2023-01-04T04:26:15.943Z,99659.69
2023-01-04T04:27:17.737Z,99658.03
2023-01-04T04:28:20.489Z,99653.88
2023-01-04T04:29:23.013Z,99659.06
2023-01-04T04:30:25.841Z,99654.00
2023-01-04T04:31:27.681Z,99651.47
2023-01-04T04:32:30.721Z,99649.78
2023-01-04T04:33:32.525Z,99643.84
2023-01-04T04:34:36.582Z,99654.88
2023-01-04T04:35:40.463Z,99648.94
2023-01-04T04:36:43.212Z,99647.25
2023-01-04T04:37:44.982Z,99640.47
2023-01-04T04:38:47.892Z,99637.09
2023-01-04T04:39:49.702Z,99640.53
2023-01-04T04:41:10.273Z,99636.31
2023-01-04T04:42:13.216Z,99637.19
2023-01-04T04:43:15.008Z,99634.63
2023-01-04T04:44:19.338Z,99633.78
2023-01-04T04:45:21.667Z,99626.97
2023-01-04T04:46:24.489Z,99631.25
2023-01-04T04:47:26.333Z,99632.97
2023-01-04T04:48:29.202Z,99632.13
2023-01-04T04:49:32.589Z,99630.41
2023-01-04T04:50:34.637Z,99627.06
2023-01-04T04:51:39.468Z,99622.84
2023-01-04T04:52:41.579Z,99620.28
2023-01-04T04:53:44.399Z,99621.16
2023-01-04T04:54:46.209Z,99619.50
2023-01-04T04:55:51.721Z,99615.28
2023-01-04T04:56:53.577Z,99611.88
2023-01-04T04:57:57.205Z,99617.00
2023-01-04T04:58:58.995Z,99613.59
2023-01-04T05:00:01.759Z,99606.81
2023-01-04T05:01:04.399Z,99606.88
2023-01-04T05:02:07.418Z,99600.91
2023-01-04T05:03:09.444Z,99603.47
2023-01-04T05:04:16.330Z,99602.59
2023-01-04T05:05:18.135Z,99602.59
2023-01-04T05:06:21.466Z,99602.59
2023-01-04T05:07:24.763Z,99600.06
2023-01-04T05:08:27.794Z,99609.38
2023-01-04T05:09:29.561Z,99595.78
2023-01-04T05:10:32.463Z,99597.50
2023-01-04T05:11:53.231Z,99596.66
2023-01-04T05:13:00.910Z,99590.69
2023-01-04T05:14:02.888Z,99594.94
2023-01-04T05:15:06.355Z,99594.09
2023-01-04T05:16:10.456Z,99593.22
2023-01-04T05:17:12.581Z,99591.53
2023-01-04T05:18:16.900Z,99588.16
2023-01-04T05:19:18.709Z,99588.13
2023-01-04T05:20:21.527Z,99590.69
2023-01-04T05:21:23.313Z,99585.63
2023-01-04T05:22:27.830Z,99589.84
2023-01-04T05:23:30.074Z,99585.59
2023-01-04T05:24:32.806Z,99579.66
2023-01-04T05:25:34.638Z,99583.91
2023-01-04T05:26:37.457Z,99593.25
2023-01-04T05:27:39.321Z,99585.56
2023-01-04T05:28:42.047Z,99582.16
2023-01-04T05:30:02.436Z,99586.38
2023-01-04T05:31:04.327Z,99584.69
2023-01-04T05:32:06.320Z,99586.41
2023-01-04T05:33:09.423Z,99590.66
2023-01-04T05:34:11.175Z,99587.25
2023-01-04T05:35:13.902Z,99587.25
2023-01-04T05:36:15.774Z,99582.16
2023-01-04T05:37:18.496Z,99580.47
2023-01-04T05:38:23.210Z,99590.66
2023-01-04T05:39:25.468Z,99586.44
2023-01-04T05:40:28.565Z,99592.38
2023-01-04T05:41:48.716Z,99598.31
2023-01-04T05:42:51.727Z,99591.53
2023-01-04T05:43:53.594Z,99586.47
2023-01-04T05:44:57.626Z,99595.81
2023-01-04T05:46:00.491Z,99583.09
2023-01-04T05:47:02.365Z,99588.22
2023-01-04T05:48:05.565Z,99592.50
2023-01-04T05:49:07.438Z,99589.97
2023-01-04T05:50:11.233Z,99587.44
2023-01-04T05:51:13.379Z,99590.81
2023-01-04T05:52:16.531Z,99590.81
2023-01-04T05:53:19.391Z,99588.28
2023-01-04T05:54:22.857Z,99589.13
2023-01-04T05:55:26.221Z,99584.91
2023-01-04T05:56:27.995Z,99585.81
2023-01-04T05:57:30.788Z,99588.38
2023-01-04T05:58:32.728Z,99587.53
2023-01-04T05:59:41.091Z,99588.41
2023-01-04T06:00:44.427Z,99585.88
2023-01-04T06:01:46.425Z,99584.16
2023-01-04T06:02:49.414Z,99585.03
2023-01-04T06:03:51.411Z,99588.41
2023-01-04T06:04:58.801Z,99579.06
2023-01-04T06:06:02.360Z,99575.69
2023-01-04T06:07:04.188Z,99587.56
2023-01-04T06:08:07.582Z,99580.78
2023-01-04T06:09:09.367Z,99574.81
2023-01-04T06:10:15.305Z,99575.66
2023-01-04T06:11:21.303Z,99569.72
2023-01-04T06:12:27.109Z,99573.09
2023-01-04T06:13:28.924Z,99579.03
2023-01-04T06:14:31.763Z,99571.38
2023-01-04T06:15:37.997Z,99572.19
2023-01-04T06:16:45.765Z,99570.53
2023-01-04T06:17:47.645Z,99565.41
2023-01-04T06:18:50.608Z,99569.66
2023-01-04T06:19:52.379Z,99568.81
2023-01-04T06:20:55.470Z,99565.41
2023-01-04T06:21:57.470Z,99563.66
2023-01-04T06:23:00.235Z,99567.06
2023-01-04T06:24:02.340Z,99566.22
2023-01-04T06:25:05.574Z,99563.66
2023-01-04T06:26:08.730Z,99562.81
2023-01-04T06:27:11.721Z,99557.78
2023-01-04T06:28:13.548Z,99564.59
2023-01-04T06:29:16.607Z,99553.59
2023-01-04T06:30:19.538Z,99554.47
2023-01-04T06:31:21.383Z,99558.72
2023-01-04T06:32:24.197Z,99550.25
2023-01-04T06:33:26.000Z,99542.56
2023-01-04T06:34:31.088Z,99544.22
2023-01-04T06:35:35.919Z,99545.06
2023-01-04T06:36:38.040Z,99546.75
2023-01-04T06:37:40.791Z,99555.22
2023-01-04T06:38:42.559Z,99550.97
2023-01-04T06:39:45.379Z,99546.69
2023-01-04T06:40:47.232Z,99551.81
2023-01-04T06:41:51.382Z,99556.09
2023-01-04T06:42:53.195Z,99558.66
2023-01-04T06:43:55.959Z,99556.13
2023-01-04T06:44:57.794Z,99551.88
2023-01-04T06:46:01.529Z,99554.41
2023-01-04T06:47:03.426Z,99560.38
2023-01-04T06:48:09.241Z,99563.78
2023-01-04T06:49:14.267Z,99565.50
2023-01-04T06:50:17.123Z,99563.81
2023-01-04T06:51:18.911Z,99558.72
2023-01-04T06:52:21.763Z,99559.59
2023-01-04T06:53:23.520Z,99557.06
2023-01-04T06:54:27.021Z,99551.13
2023-01-04T06:55:29.753Z,99556.22
2023-01-04T06:56:33.516Z,99549.41
2023-01-04T06:57:36.765Z,99543.44
2023-01-04T06:58:39.689Z,99537.44
2023-01-04T06:59:41.435Z,99540.81
2023-01-04T07:00:44.224Z,99539.94
2023-01-04T07:01:46.338Z,99535.66
2023-01-04T07:03:14.072Z,99541.56
2023-01-04T07:04:11.925Z,99533.03
2023-01-04T07:05:13.929Z,99538.06
2023-01-04T07:06:16.691Z,99534.63
2023-01-04T07:07:18.468Z,99537.13
2023-01-04T07:08:21.641Z,99548.16
2023-01-04T07:09:23.453Z,99540.47
2023-01-04T07:10:26.166Z,99546.44
2023-01-04T07:11:27.998Z,99546.41
2023-01-04T07:12:30.890Z,99544.75
2023-01-04T07:13:34.092Z,99545.56
2023-01-04T07:14:37.309Z,99538.75
2023-01-04T07:15:40.966Z,99540.47
2023-01-04T07:16:44.068Z,99531.13
2023-01-04T07:17:47.532Z,99527.69
2023-01-04T07:18:50.299Z,99537.03
2023-01-04T07:19:52.131Z,99537.00
2023-01-04T07:20:54.973Z,99532.69
2023-01-04T07:21:58.597Z,99523.31
2023-01-04T07:23:01.344Z,99531.78
2023-01-04T07:24:04.258Z,99530.03
2023-01-04T07:25:06.527Z,99532.53
2023-01-04T07:26:09.310Z,99524.84
2023-01-04T07:27:12.836Z,99530.75
2023-01-04T07:28:35.980Z,99534.13
2023-01-04T07:29:43.786Z,99533.22
2023-01-04T07:30:45.725Z,99531.53
2023-01-04T07:31:50.879Z,99529.75
2023-01-04T07:32:54.575Z,99535.69
2023-01-04T07:33:57.784Z,99527.13
2023-01-04T07:35:00.599Z,99532.22
2023-01-04T07:36:06.356Z,99527.91
2023-01-04T07:37:10.192Z,99526.16
2023-01-04T07:38:11.975Z,99524.38
2023-01-04T07:39:15.053Z,99524.31
2023-01-04T07:40:18.268Z,99520.00
2023-01-04T07:41:20.112Z,99519.91
2023-01-04T07:42:22.889Z,99529.22
2023-01-04T07:43:28.306Z,99523.19
2023-01-04T07:44:31.549Z,99516.28
2023-01-04T07:45:36.035Z,99522.13
2023-01-04T07:46:39.829Z,99521.19
2023-01-04T07:47:41.663Z,99515.06
2023-01-04T07:48:44.495Z,99516.66
2023-01-04T07:49:48.954Z,99525.06
2023-01-04T07:50:51.742Z,99518.97
2023-01-04T07:51:54.559Z,99528.22
2023-01-04T07:52:57.175Z,99523.84
2023-01-04T07:54:00.114Z,99516.09
2023-01-04T07:55:02.019Z,99519.34
2023-01-04T07:56:04.996Z,99511.50
2023-01-04T07:57:07.807Z,99516.44
2023-01-04T07:58:09.611Z,99513.72
2023-01-04T07:59:13.878Z,99515.34
2023-01-04T08:00:17.334Z,99521.19
2023-01-04T08:01:20.636Z,99527.06
2023-01-04T08:02:23.626Z,99523.56
2023-01-04T08:03:26.404Z,99522.56
2023-01-04T08:04:34.676Z,99515.59
2023-01-04T08:05:38.199Z,99509.47
2023-01-04T08:06:42.170Z,99507.63
2023-01-04T08:07:43.996Z,99513.41
2023-01-04T08:08:46.982Z,99506.44
2023-01-04T08:09:49.776Z,99508.81
2023-01-04T08:10:51.624Z,99508.69
2023-01-04T08:11:54.571Z,99505.97
2023-01-04T08:12:58.354Z,99497.28
2023-01-04T08:14:01.365Z,99504.81
2023-01-04T08:15:03.472Z,99493.56
2023-01-04T08:16:07.058Z,99491.69
2023-01-04T08:17:11.292Z,99493.22
2023-01-04T08:18:13.513Z,99484.50
2023-01-04T08:19:17.640Z,99491.22
2023-01-04T08:20:20.689Z,99494.50
2023-01-04T08:21:24.157Z,99496.06
2023-01-04T08:22:26.009Z,99491.69
2023-01-04T08:23:28.926Z,99488.97
2023-01-04T08:24:31.899Z,99498.22
2023-01-04T08:25:33.687Z,99490.44
2023-01-04T08:26:36.500Z,99497.19
2023-01-04T08:27:38.529Z,99493.66
2023-01-04T08:28:41.541Z,99490.09
2023-01-04T08:29:44.271Z,99489.97
2023-01-04T08:30:46.158Z,99483.00
2023-01-04T08:31:49.080Z,99482.03
2023-01-04T08:32:53.569Z,99481.84
2023-01-04T08:33:57.023Z,99475.72
2023-01-04T08:34:58.775Z,99475.47
2023-01-04T08:36:09.144Z,99465.91
2023-01-04T08:37:12.223Z,99464.06
2023-01-04T08:38:57.672Z,99470.75
2023-01-04T08:39:36.739Z,99474.00
2023-01-04T08:40:58.698Z,99465.25
2023-01-04T08:42:14.482Z,99465.06
2023-01-04T08:43:23.826Z,99468.28
2023-01-04T08:44:25.839Z,99464.63
2023-01-04T08:45:29.465Z,99467.81
2023-01-04T08:46:31.343Z,99464.16
2023-01-04T08:47:34.445Z,99467.34
2023-01-04T08:48:38.601Z,99473.88
2023-01-04T08:49:41.782Z,99472.81
2023-01-04T08:50:43.544Z,99470.00
2023-01-04T08:51:46.685Z,99467.16
2023-01-04T08:52:48.673Z,99472.84
2023-01-04T08:53:51.469Z,99467.53
2023-01-04T08:54:54.379Z,99463.91
2023-01-04T08:55:58.690Z,99454.25
2023-01-04T08:57:00.522Z,99455.69
2023-01-04T08:58:03.307Z,99456.28
2023-01-04T08:59:07.268Z,99450.94
2023-01-04T09:00:11.308Z,99459.31
2023-01-04T09:01:14.131Z,99451.34
2023-01-04T09:02:23.172Z,99458.84
2023-01-04T09:03:26.143Z,99450.91
2023-01-04T09:04:29.798Z,99451.50
2023-01-04T09:05:33.102Z,99453.81
2023-01-04T09:06:36.256Z,99448.31
2023-01-04T09:07:38.111Z,99450.53
2023-01-04T09:08:42.194Z,99444.06
2023-01-04T09:09:44.440Z,99452.94
2023-01-04T09:10:47.270Z,99441.31
2023-01-04T09:11:49.075Z,99440.00
2023-01-04T09:12:51.858Z,99444.69
2023-01-04T09:14:06.919Z,99435.59
2023-01-04T09:15:11.909Z,99436.78
2023-01-04T09:16:15.699Z,99433.75
2023-01-04T09:17:18.505Z,99432.41
2023-01-04T09:18:31.727Z,99435.38
2023-01-04T09:19:36.788Z,99429.69
2023-01-04T09:20:38.672Z,99429.28
2023-01-04T09:21:42.396Z,99435.84
2023-01-04T09:22:45.221Z,99430.38
2023-01-04T09:23:47.348Z,99433.59
2023-01-04T09:24:50.192Z,99432.59
2023-01-04T09:25:52.087Z,99428.22
2023-01-04T09:26:54.835Z,99417.81
2023-01-04T09:27:57.345Z,99421.16
2023-01-04T09:29:00.112Z,99421.94
2023-01-04T09:30:03.255Z,99421.03
2023-01-04T09:31:06.408Z,99416.59
2023-01-04T09:32:16.091Z,99417.41
2023-01-04T09:33:18.534Z,99418.25
2023-01-04T09:34:21.602Z,99415.47
2023-01-04T09:35:24.752Z,99405.84
2023-01-04T09:36:28.093Z,99404.84
2023-01-04T09:37:30.300Z,99405.59
2023-01-04T09:38:33.810Z,99397.72
2023-01-04T09:39:36.564Z,99398.44
2023-01-04T09:40:48.584Z,99398.16
2023-01-04T09:41:57.083Z,99392.56
2023-01-04T09:43:21.324Z,99383.50
2023-01-04T09:45:03.137Z,99381.94
2023-01-04T09:45:55.324Z,99384.84
2023-01-04T09:47:01.873Z,99382.75
2023-01-04T09:48:06.436Z,99380.84
2023-01-04T09:49:17.763Z,99372.84
2023-01-04T09:50:24.059Z,99370.94
2023-01-04T09:51:32.217Z,99371.03
2023-01-04T09:52:48.287Z,99364.19
2023-01-04T09:53:55.104Z,99359.16
2023-01-04T09:55:04.833Z,99365.38
2023-01-04T09:56:27.933Z,99366.47
2023-01-04T09:57:33.834Z,99357.19
2023-01-04T09:58:38.062Z,99346.97
2023-01-04T09:59:41.451Z,99348.66
2023-01-04T10:00:46.872Z,99347.75
2023-01-04T10:01:51.121Z,99345.84
2023-01-04T10:03:00.246Z,99343.19
2023-01-04T10:04:06.306Z,99344.88
2023-01-04T10:05:10.035Z,99337.94
2023-01-04T10:06:15.691Z,99336.94
2023-01-04T10:07:25.189Z,99329.03
2023-01-04T10:08:28.099Z,99330.63
2023-01-04T10:09:31.524Z,99333.81
2023-01-04T10:10:48.722Z,99319.81
2023-01-04T10:12:03.151Z,99320.34
2023-01-04T10:13:09.952Z,99316.56
2023-01-04T10:14:25.183Z,99298.88
2023-01-04T10:15:32.648Z,99305.41
2023-01-04T10:21:33.628Z,99303.81
2023-01-04T10:22:43.285Z,99302.75
2023-01-04T10:23:56.103Z,99299.97
2023-01-04T10:25:04.144Z,99292.94
2023-01-04T10:26:12.588Z,99294.63
2023-01-04T10:27:22.584Z,99294.44
2023-01-04T10:28:33.726Z,99292.69
2023-01-04T10:29:41.678Z,99285.75
2023-01-04T10:30:50.082Z,99283.09
2023-01-04T10:31:54.741Z,99277.84
2023-01-04T10:33:05.601Z,99276.91
2023-01-04T10:34:18.955Z,99283.75
2023-01-04T10:35:23.716Z,99281.09
2023-01-04T10:36:28.987Z,99275.09
2023-01-04T10:37:35.037Z,99273.25
2023-01-04T10:38:40.892Z,99269.66
2023-01-04T10:39:45.207Z,99268.66
2023-01-04T10:40:50.371Z,99269.31
2023-01-04T10:41:55.834Z,99268.31
2023-01-04T10:43:03.401Z,99270.66
2023-01-04T10:44:10.597Z,99262.72
2023-01-04T10:45:18.300Z,99267.66
2023-01-04T10:46:23.678Z,99257.88
2023-01-04T10:47:31.990Z,99258.50
2023-01-04T10:48:39.590Z,99252.25
2023-01-04T10:49:43.799Z,99255.50
2023-01-04T10:50:52.200Z,99251.72
2023-01-04T10:51:56.963Z,99243.69
2023-01-04T10:53:03.659Z,99240.88
2023-01-04T10:54:14.835Z,99242.28
2023-01-04T10:55:20.229Z,99229.88
2023-01-04T10:56:27.311Z,99226.00
2023-01-04T10:57:35.286Z,99226.56
2023-01-04T10:58:43.268Z,99211.56
2023-01-04T10:59:49.091Z,99212.13
2023-01-04T11:00:56.139Z,99214.38
2023-01-04T11:02:02.824Z,99207.25
2023-01-04T11:03:09.939Z,99217.34
2023-01-04T11:04:16.808Z,99213.81
2023-01-04T11:05:23.400Z,99213.72
2023-01-04T11:06:27.887Z,99206.72
2023-01-04T11:07:35.884Z,99204.00
2023-01-04T11:08:44.571Z,99203.91
2023-01-04T11:09:53.192Z,99197.72
2023-01-04T11:10:58.158Z,99194.19
2023-01-04T11:12:01.917Z,99189.72
2023-01-04T11:13:05.003Z,99184.47
2023-01-04T11:14:07.867Z,99189.44
2023-01-04T11:15:11.579Z,99187.50
2023-01-04T11:16:13.715Z,99185.56
2023-01-04T11:17:16.530Z,99182.69
2023-01-04T11:18:18.628Z,99186.75
2023-01-04T11:19:21.862Z,99186.69
2023-01-04T11:20:27.077Z,99175.25
2023-01-04T11:21:34.634Z,99174.31
2023-01-04T11:22:42.148Z,99167.38
2023-01-04T11:23:44.975Z,99167.38
2023-01-04T11:25:32.558Z,99162.19
2023-01-04T11:26:16.496Z,99168.31
2023-01-04T11:27:26.862Z,99163.94
2023-01-04T11:28:32.596Z,99157.00
2023-01-04T11:29:40.522Z,99152.72
2023-01-04T11:30:49.806Z,99153.66
2023-01-04T11:31:55.762Z,99154.50
2023-01-04T11:33:02.940Z,99147.44
2023-01-04T11:34:05.729Z,99155.97
2023-01-04T11:35:08.319Z,99149.97
2023-01-04T11:36:11.646Z,99141.22
2023-01-04T11:37:29.579Z,99153.19
2023-01-04T11:38:32.333Z,99147.09
2023-01-04T11:39:34.396Z,99145.09
2023-01-04T11:40:38.576Z,99135.47
2023-01-04T11:41:41.324Z,99148.16
2023-01-04T11:42:43.584Z,99124.59
2023-01-04T11:43:58.419Z,99120.16
2023-01-04T11:45:00.388Z,99125.13
2023-01-04T11:46:05.922Z,99119.88
2023-01-04T11:47:14.368Z,99104.16
2023-01-04T11:48:16.151Z,99104.16
2023-01-04T11:49:38.115Z,99091.28
2023-01-04T11:50:42.806Z,99092.03
2023-01-04T11:51:45.555Z,99094.50
2023-01-04T11:52:47.653Z,99093.56
2023-01-04T11:53:59.046Z,99086.53
2023-01-04T11:55:18.677Z,99087.16
2023-01-04T11:56:25.020Z,99084.47
2023-01-04T11:57:26.852Z,99081.75
2023-01-04T11:58:29.653Z,99082.41
2023-01-04T11:59:32.515Z,99077.00
2023-01-04T12:00:34.324Z,99076.69
2023-01-04T12:01:38.782Z,99079.00
2023-01-04T12:04:06.772Z,99079.53
2023-01-04T12:05:24.543Z,99077.69
2023-01-04T12:06:52.352Z,99079.53
2023-01-04T12:07:54.273Z,99088.97
2023-01-04T12:08:57.217Z,99075.16
2023-01-04T12:10:01.181Z,99085.47
2023-01-04T12:11:05.342Z,99083.59
2023-01-04T12:12:16.026Z,99086.19
2023-01-04T12:13:18.290Z,99072.38
2023-01-04T12:14:23.863Z,99067.38
2023-01-04T12:15:33.270Z,99062.16
2023-01-04T12:16:45.141Z,99060.81
2023-01-04T12:17:51.200Z,99070.66
2023-01-04T12:18:53.445Z,99056.97
2023-01-04T12:19:57.764Z,99064.94
2023-01-04T12:21:02.055Z,99048.63
2023-01-04T12:22:05.783Z,99047.88
2023-01-04T12:23:08.817Z,99040.22
2023-01-04T12:24:17.771Z,99031.78
2023-01-04T12:25:30.160Z,99049.03
2023-01-04T12:26:33.524Z,99043.09
2023-01-04T12:27:37.732Z,99030.94
2023-01-04T12:28:41.181Z,99031.88
2023-01-04T12:29:59.169Z,99029.41
2023-01-04T12:31:29.747Z,99033.75
2023-01-04T12:32:46.286Z,99041.75
2023-01-04T12:33:49.955Z,99031.47
2023-01-04T12:34:52.818Z,99034.16
2023-01-04T12:36:06.549Z,99033.41
2023-01-04T12:37:10.300Z,99022.38
2023-01-04T12:38:12.066Z,99025.91
2023-01-04T12:39:30.083Z,99021.66
2023-01-04T12:41:00.115Z,99025.31
2023-01-04T12:42:22.005Z,99025.38
2023-01-04T12:43:26.918Z,99022.06
2023-01-04T12:45:18.603Z,99008.34
2023-01-04T12:46:52.542Z,99002.53
2023-01-04T12:48:13.200Z,99004.28
2023-01-04T12:49:51.636Z,98991.38
2023-01-04T12:51:46.903Z,98992.31
2023-01-04T12:54:24.242Z,98982.16
2023-01-04T12:56:00.309Z,98980.41
2023-01-04T12:57:23.890Z,98977.03
2023-01-04T13:01:11.063Z,98957.22
2023-01-04T13:02:20.347Z,98951.09
2023-01-04T13:03:36.688Z,98951.84
2023-01-04T13:04:41.653Z,98944.88
2023-01-04T13:05:56.566Z,98946.44
2023-01-04T13:07:09.999Z,98944.59
2023-01-04T13:08:14.941Z,98947.91
2023-01-04T13:09:24.213Z,98940.94
2023-01-04T13:10:32.904Z,98943.34
2023-01-04T13:12:00.302Z,98947.59